Time;durP1;ratioP1;P1;durP2;ratioP2;P2;SDS_P1;SDS_P2;PMS_P1;PMS_P2;Temp;Humidity;BMP_temperature;BMP_pressure;BME280_temperature;BME280_humidity;BME280_pressure;Samples;Min_cycle;Max_cycle;Signal;HPM_P1;HPM_P2
2022/06/02 00:02:38;;;;;;;4.97;2.88;;;;;;;8.01;95.39;101108.09;5999136;28;20042;-66
2022/06/02 00:05:50;;;;;;;5.30;3.00;;;;;;;7.96;95.56;101110.28;5999169;28;20041;-66
2022/06/02 00:08:56;;;;;;;6.25;3.53;;;;;;;8.05;96.01;101110.38;6025493;28;20037;-66
2022/06/02 00:12:23;;;;;;;7.18;3.63;;;;;;;7.87;96.59;101121.53;6053168;28;20581;-66
2022/06/02 00:15:26;;;;;;;5.78;3.53;;;;;;;7.73;97.05;101125.25;6027032;28;20624;-66
2022/06/02 00:18:30;;;;;;;5.80;3.58;;;;;;;7.67;97.32;101128.34;6027844;28;20405;-66
2022/06/02 00:21:31;;;;;;;6.30;3.45;;;;;;;7.58;97.86;101123.78;6024567;28;20066;-65
2022/06/02 00:24:44;;;;;;;6.80;3.38;;;;;;;7.60;97.87;101132.41;6041792;28;20062;-66
2022/06/02 00:27:51;;;;;;;6.80;3.70;;;;;;;7.57;98.31;101146.69;6026365;28;20061;-66
2022/06/02 00:30:55;;;;;;;7.15;3.25;;;;;;;7.65;98.57;101144.31;6031979;28;20122;-66
2022/06/02 00:33:59;;;;;;;6.32;3.28;;;;;;;7.57;98.34;101151.13;6031756;28;20113;-66
2022/06/02 00:37:16;;;;;;;9.15;4.05;;;;;;;7.49;98.20;101156.13;6026408;28;20030;-66
2022/06/02 00:40:12;;;;;;;7.38;3.65;;;;;;;7.47;98.44;101151.00;6025538;28;20458;-66
2022/06/02 00:43:10;;;;;;;6.93;4.28;;;;;;;7.42;99.14;101178.69;6026267;28;20041;-67
2022/06/02 00:46:32;;;;;;;8.00;3.70;;;;;;;7.46;99.23;101180.97;6031295;28;20133;-66
2022/06/02 00:49:34;;;;;;;7.00;3.50;;;;;;;7.37;99.10;101181.63;6020226;28;20452;-67
2022/06/02 00:52:44;;;;;;;7.28;4.07;;;;;;;7.36;99.41;101179.13;6027826;28;20061;-66
2022/06/02 00:59:19;;;;;;;8.98;4.80;;;;;;;7.38;99.60;101183.31;6025949;28;20038;-66
2022/06/02 01:02:16;;;;;;;9.18;4.22;;;;;;;7.53;99.44;101182.16;6051261;28;20038;-65
2022/06/02 01:05:12;;;;;;;13.30;4.57;;;;;;;7.53;99.72;101192.72;6025701;28;20031;-66
2022/06/02 01:08:16;;;;;;;9.20;5.40;;;;;;;7.49;99.95;101193.06;6036379;28;20053;-66
2022/06/02 01:11:56;;;;;;;8.05;4.53;;;;;;;7.52;99.92;101209.53;6023923;28;20062;-67
2022/06/02 01:15:16;;;;;;;8.18;5.03;;;;;;;7.55;99.77;101201.38;6006913;28;20137;-66
2022/06/02 01:18:46;;;;;;;8.98;5.40;;;;;;;7.45;99.80;101204.81;6016514;28;20045;-67
2022/06/02 01:22:13;;;;;;;9.57;5.35;;;;;;;7.37;99.97;101194.81;6041014;28;20038;-66
2022/06/02 01:25:46;;;;;;;10.00;5.53;;;;;;;7.49;100.00;101206.28;6025816;28;20526;-66
2022/06/02 01:28:48;;;;;;;9.25;5.50;;;;;;;7.48;99.87;101199.31;6022866;28;20490;-66
2022/06/02 01:31:48;;;;;;;11.15;5.88;;;;;;;7.45;99.97;101213.56;6034952;28;20038;-66
2022/06/02 01:34:59;;;;;;;9.77;5.45;;;;;;;7.48;100.00;101209.84;6045430;28;20033;-67
2022/06/02 01:38:34;;;;;;;12.23;6.13;;;;;;;7.47;100.00;101213.47;6048628;28;20065;-66
2022/06/02 01:42:11;;;;;;;9.57;5.45;;;;;;;7.45;100.00;101221.47;5992648;28;20084;-66
2022/06/02 01:45:26;;;;;;;9.65;5.40;;;;;;;7.38;100.00;101222.06;6029678;28;20061;-66
2022/06/02 01:48:29;;;;;;;11.00;5.88;;;;;;;7.25;100.00;101216.84;6029610;28;20045;-67
2022/06/02 01:51:44;;;;;;;9.30;5.35;;;;;;;7.33;100.00;101224.19;6027665;28;20030;-65
2022/06/02 01:54:57;;;;;;;10.88;5.82;;;;;;;7.49;100.00;101222.09;6029591;28;20500;-66
2022/06/02 01:58:18;;;;;;;11.05;6.38;;;;;;;7.38;100.00;101233.44;6035033;28;20085;-66
2022/06/02 02:01:33;;;;;;;8.77;4.75;;;;;;;7.12;100.00;101232.72;6029329;28;20034;-66
2022/06/02 02:04:48;;;;;;;11.73;5.80;;;;;;;7.05;100.00;101228.84;6030198;28;20038;-66
2022/06/02 02:08:04;;;;;;;9.90;5.40;;;;;;;6.91;100.00;101231.63;6044049;28;20592;-66
2022/06/02 02:11:18;;;;;;;10.07;5.50;;;;;;;6.88;100.00;101237.09;6029160;28;20049;-66
2022/06/02 02:14:32;;;;;;;9.48;5.53;;;;;;;6.98;100.00;101232.88;6029568;28;20154;-66
2022/06/02 02:17:27;;;;;;;9.55;4.90;;;;;;;6.80;100.00;101239.44;6031915;28;20060;-66
2022/06/02 02:20:44;;;;;;;15.13;5.80;;;;;;;6.74;100.00;101233.78;6028552;28;20038;-66
2022/06/02 02:24:02;;;;;;;10.98;5.80;;;;;;;6.69;100.00;101236.72;6044166;28;20038;-66
2022/06/02 02:27:07;;;;;;;11.70;5.88;;;;;;;6.74;100.00;101239.06;6030148;28;20066;-66
2022/06/02 02:30:11;;;;;;;12.80;6.72;;;;;;;6.72;100.00;101231.25;6027095;28;20049;-67
2022/06/02 02:33:34;;;;;;;13.43;6.40;;;;;;;6.81;100.00;101242.94;6028911;28;20037;-66
2022/06/02 02:36:37;;;;;;;13.32;6.95;;;;;;;6.81;100.00;101238.50;6044001;28;20045;-66
2022/06/02 02:39:48;;;;;;;11.00;6.43;;;;;;;6.67;100.00;101237.78;6028994;28;20504;-66
2022/06/02 02:42:55;;;;;;;11.98;6.35;;;;;;;6.62;100.00;101234.63;6046721;28;20034;-66
2022/06/02 02:46:12;;;;;;;10.73;6.10;;;;;;;6.80;100.00;101250.00;6027485;28;20443;-66
2022/06/02 02:49:33;;;;;;;11.00;6.15;;;;;;;6.65;100.00;101248.44;6043512;28;20474;-66
2022/06/02 02:52:43;;;;;;;11.55;6.32;;;;;;;6.67;100.00;101249.19;6044637;28;20042;-66
2022/06/02 02:55:56;;;;;;;12.25;6.68;;;;;;;6.47;100.00;101255.84;6031415;28;20093;-66
2022/06/02 02:59:13;;;;;;;12.32;6.53;;;;;;;6.52;100.00;101256.34;6026976;28;20397;-66
2022/06/02 03:02:14;;;;;;;13.40;7.22;;;;;;;6.52;100.00;101261.63;6045818;28;20130;-66
2022/06/02 03:05:21;;;;;;;12.77;6.35;;;;;;;6.41;100.00;101265.97;6029636;28;20034;-65
2022/06/02 03:08:28;;;;;;;13.07;6.60;;;;;;;6.60;100.00;101263.75;6027148;28;20121;-66
2022/06/02 03:11:26;;;;;;;14.02;7.60;;;;;;;6.71;100.00;101269.09;6026394;28;20040;-66
2022/06/02 03:14:36;;;;;;;15.57;7.90;;;;;;;6.71;100.00;101269.09;6027844;28;20069;-66
2022/06/02 03:17:34;;;;;;;14.45;7.78;;;;;;;6.87;100.00;101277.63;6027986;28;20078;-66
2022/06/02 03:20:59;;;;;;;16.65;8.43;;;;;;;6.85;100.00;101274.22;6034909;28;20049;-66
2022/06/02 03:24:08;;;;;;;15.73;8.55;;;;;;;6.91;100.00;101278.22;6044935;28;20022;-66
2022/06/02 03:27:22;;;;;;;16.83;7.93;;;;;;;6.86;100.00;101288.25;6043006;28;20042;-66
2022/06/02 03:30:25;;;;;;;14.38;7.55;;;;;;;6.70;100.00;101285.84;6027224;28;20118;-66
2022/06/02 03:33:30;;;;;;;13.85;7.72;;;;;;;6.80;100.00;101281.63;6029942;28;20080;-66
2022/06/02 03:36:54;;;;;;;15.60;7.70;;;;;;;6.59;100.00;101283.13;6033155;28;20030;-65
2022/06/02 03:40:20;;;;;;;14.15;7.85;;;;;;;6.82;100.00;101284.97;6026492;28;20030;-66
2022/06/02 03:43:23;;;;;;;16.52;7.85;;;;;;;6.63;100.00;101281.97;6027387;28;20066;-66
2022/06/02 03:46:24;;;;;;;13.77;7.18;;;;;;;6.53;100.00;101300.19;6032187;28;20026;-66
2022/06/02 03:49:22;;;;;;;15.82;8.18;;;;;;;6.73;100.00;101296.19;6031999;28;20449;-65
2022/06/02 03:52:47;;;;;;;14.05;7.20;;;;;;;6.77;100.00;101302.06;6026780;28;20030;-66
2022/06/02 03:56:07;;;;;;;15.27;7.82;;;;;;;6.71;100.00;101300.72;6047461;28;20041;-66
2022/06/02 03:59:11;;;;;;;;;;;;;;;6.79;100.00;101305.47;6027600;28;20390;-66
2022/06/02 04:02:15;;;;;;;16.65;8.05;;;;;;;6.69;100.00;101302.59;6030535;28;19930;-65
2022/06/02 04:05:19;;;;;;;15.60;8.30;;;;;;;6.88;100.00;101308.28;6029584;28;20030;-65
2022/06/02 04:08:36;;;;;;;18.08;9.23;;;;;;;6.94;100.00;101310.50;6026844;28;20030;-66
2022/06/02 04:15:39;;;;;;;19.85;9.20;;;;;;;7.08;100.00;101325.34;6020988;28;20038;-66
2022/06/02 04:18:46;;;;;;;18.63;8.35;;;;;;;7.24;100.00;101333.00;6047177;28;20038;-66
2022/06/02 04:21:56;;;;;;;15.18;8.32;;;;;;;7.48;100.00;101326.81;6025561;28;20105;-66
2022/06/02 04:25:12;;;;;;;15.98;8.00;;;;;;;7.98;100.00;101351.28;6027992;28;20034;-65
2022/06/02 04:28:30;;;;;;;14.30;7.35;;;;;;;8.47;100.00;101353.78;6032797;28;20050;-67
2022/06/02 04:31:48;;;;;;;15.00;9.00;;;;;;;8.71;100.00;101359.81;6024255;28;20042;-66
2022/06/02 04:35:21;;;;;;;14.93;7.38;;;;;;;9.24;100.00;101350.34;6026060;28;20057;-66
2022/06/02 04:38:34;;;;;;;13.55;7.35;;;;;;;9.65;100.00;101366.38;6026371;28;20030;-66
2022/06/02 04:41:46;;;;;;;11.45;6.65;;;;;;;9.67;100.00;101360.97;6023578;28;20037;-67
2022/06/02 04:44:50;;;;;;;13.73;6.78;;;;;;;9.82;99.07;101372.97;6027887;28;20026;-66
2022/06/02 04:48:08;;;;;;;13.80;7.03;;;;;;;10.21;96.01;101372.38;6062287;28;20454;-65
2022/06/02 04:51:12;;;;;;;12.05;6.75;;;;;;;10.47;92.14;101371.03;6045038;28;20038;-66
2022/06/02 04:54:38;;;;;;;11.30;6.35;;;;;;;10.63;91.22;101376.72;6025967;28;20065;-65
2022/06/02 04:58:17;;;;;;;14.32;6.50;;;;;;;10.77;88.13;101375.53;6041721;28;20043;-66
2022/06/02 05:01:20;;;;;;;11.38;6.97;;;;;;;10.89;87.16;101373.66;6020377;28;20048;-66
2022/06/02 05:04:24;;;;;;;11.77;6.90;;;;;;;11.23;87.25;101380.38;6025687;28;20045;-66
2022/06/02 05:07:28;;;;;;;11.55;6.80;;;;;;;11.47;85.00;101375.56;6034291;28;20469;-66
2022/06/02 05:10:31;;;;;;;11.43;6.13;;;;;;;11.96;83.64;101377.34;6030711;28;20038;-66
2022/06/02 05:13:52;;;;;;;13.93;7.15;;;;;;;11.75;83.09;101388.13;6034550;28;20040;-65
2022/06/02 05:17:08;;;;;;;12.25;7.05;;;;;;;11.58;83.86;101391.38;6049743;28;20501;-66
2022/06/02 05:20:45;;;;;;;12.32;7.88;;;;;;;11.52;83.67;101391.94;6029062;28;20113;-66
2022/06/02 05:24:06;;;;;;;14.88;7.45;;;;;;;11.93;83.22;101405.06;6030635;28;20038;-66
2022/06/02 05:27:28;;;;;;;15.05;7.65;;;;;;;12.13;82.83;101403.28;6031278;28;20085;-66
2022/06/02 05:30:40;;;;;;;13.25;7.35;;;;;;;12.36;80.16;101409.16;6044978;28;20421;-66
2022/06/02 05:33:50;;;;;;;12.98;7.20;;;;;;;12.08;80.74;101409.97;6030830;28;20042;-66
2022/06/02 05:37:07;;;;;;;12.13;7.63;;;;;;;12.08;82.38;101405.50;6045068;28;20030;-66
2022/06/02 05:40:19;;;;;;;14.30;7.85;;;;;;;12.09;82.25;101411.66;6031094;28;20050;-66
2022/06/02 05:43:18;;;;;;;15.20;8.25;;;;;;;12.58;81.32;101434.63;6048916;28;20034;-66
2022/06/02 05:46:32;;;;;;;11.85;7.30;;;;;;;12.81;79.49;101426.19;6030718;28;20038;-65
2022/06/02 05:49:37;;;;;;;12.77;8.05;;;;;;;12.72;79.45;101443.00;6044866;28;20034;-66
2022/06/02 05:53:04;;;;;;;15.15;8.70;;;;;;;12.48;81.37;101429.31;6047251;28;20035;-66
2022/06/02 05:56:39;;;;;;;14.15;8.43;;;;;;;12.60;80.72;101438.84;6036656;28;20574;-66
2022/06/02 05:59:51;;;;;;;14.32;8.20;;;;;;;12.30;81.52;101455.78;6037585;28;20061;-66
2022/06/02 06:03:13;;;;;;;17.27;9.05;;;;;;;12.35;81.67;101445.56;6046628;28;20386;-66
2022/06/02 06:06:40;;;;;;;14.38;7.72;;;;;;;13.07;80.51;101447.75;6027573;28;20402;-66
2022/06/02 06:10:07;;;;;;;16.50;9.30;;;;;;;13.78;75.77;101451.53;6032305;28;20472;-66
2022/06/02 06:13:09;;;;;;;19.20;10.32;;;;;;;13.21;77.78;101459.78;6033880;28;20045;-65
2022/06/02 06:16:13;;;;;;;21.02;9.60;;;;;;;13.02;78.49;101458.78;6027972;28;20037;-65
2022/06/02 06:19:40;;;;;;;17.25;10.13;;;;;;;12.72;80.44;101463.47;6032674;28;20058;-65
2022/06/02 06:22:57;;;;;;;14.82;9.00;;;;;;;13.81;76.49;101461.91;6028558;28;20038;-65
2022/06/02 06:26:29;;;;;;;14.02;8.68;;;;;;;13.81;76.02;101464.56;6024921;28;20034;-65
2022/06/02 06:29:24;;;;;;;;;;;;;;;13.58;75.71;101473.94;6025416;28;20112;-65
2022/06/02 06:32:33;;;;;;;12.23;7.57;;;;;;;13.43;78.36;101467.38;6030014;28;19928;-67
2022/06/02 06:35:41;;;;;;;15.30;8.30;;;;;;;13.93;76.26;101468.72;6044352;28;20058;-66
2022/06/02 06:38:55;;;;;;;12.52;7.80;;;;;;;13.61;74.84;101482.50;6028128;28;20037;-67
2022/06/02 06:42:15;;;;;;;14.13;8.40;;;;;;;14.01;74.98;101482.16;6029585;28;20029;-66
2022/06/02 06:45:18;;;;;;;13.20;7.97;;;;;;;13.62;76.14;101476.16;6028732;28;20034;-67
2022/06/02 06:48:31;;;;;;;15.63;8.60;;;;;;;13.40;78.36;101481.03;6031322;28;20041;-67
2022/06/02 06:51:40;;;;;;;13.60;8.00;;;;;;;13.26;77.45;101490.31;6040726;28;20466;-68
2022/06/02 06:54:46;;;;;;;13.82;8.60;;;;;;;12.69;78.30;101485.88;6027083;28;20038;-67
2022/06/02 06:57:47;;;;;;;13.85;7.78;;;;;;;13.35;80.05;101485.94;6028368;28;20038;-68
2022/06/02 07:01:10;;;;;;;15.20;7.97;;;;;;;13.89;74.97;101485.97;6025532;28;20077;-68
2022/06/02 07:04:18;;;;;;;12.57;7.80;;;;;;;13.80;76.71;101489.56;6024191;28;20054;-67
2022/06/02 07:07:23;;;;;;;11.88;6.97;;;;;;;14.93;71.95;101490.72;6028038;28;20030;-69
2022/06/02 07:10:26;;;;;;;12.18;6.70;;;;;;;14.81;70.63;101487.47;6026558;28;20045;-68
2022/06/02 07:13:28;;;;;;;10.27;6.20;;;;;;;15.61;67.66;101491.72;6028602;28;20038;-68
2022/06/02 07:16:29;;;;;;;10.52;6.78;;;;;;;15.28;67.12;101495.16;6026758;28;20121;-69
2022/06/02 07:19:52;;;;;;;11.25;7.07;;;;;;;14.72;68.30;101498.25;6046852;28;20037;-68
2022/06/02 07:23:11;;;;;;;12.27;7.13;;;;;;;13.78;72.25;101502.19;6029084;28;20405;-66
2022/06/02 07:26:10;;;;;;;12.55;7.57;;;;;;;13.71;74.15;101498.44;6042872;28;20034;-67
2022/06/02 07:29:26;;;;;;;12.48;7.28;;;;;;;13.92;72.22;101499.03;6042434;28;20042;-68
2022/06/02 07:32:27;;;;;;;12.32;7.68;;;;;;;14.71;71.01;101493.88;6026138;28;20382;-68
2022/06/02 07:35:51;;;;;;;12.20;6.93;;;;;;;14.80;70.07;101501.81;6027367;28;20057;-67
2022/06/02 07:38:59;;;;;;;10.75;7.13;;;;;;;14.82;67.57;101493.66;6027303;28;20035;-67
2022/06/02 07:42:13;;;;;;;10.23;6.35;;;;;;;15.15;67.20;101497.41;6025705;28;20046;-66
2022/06/02 07:45:22;;;;;;;10.55;6.55;;;;;;;15.47;65.18;101492.28;6027159;28;20486;-67
2022/06/02 07:48:29;;;;;;;9.23;5.60;;;;;;;14.90;65.73;101491.88;6027184;28;20069;-68
2022/06/02 07:51:42;;;;;;;9.52;6.28;;;;;;;14.58;66.37;101491.59;6025246;28;20061;-67
2022/06/02 07:55:00;;;;;;;10.98;6.28;;;;;;;14.81;67.35;101502.66;6026097;28;20030;-67
2022/06/02 07:58:21;;;;;;;11.00;5.88;;;;;;;15.53;65.81;101488.16;6027311;28;20034;-67
2022/06/02 08:01:16;;;;;;;9.82;5.53;;;;;;;16.45;60.16;101487.13;6026271;28;20042;-67
2022/06/02 08:04:19;;;;;;;10.70;5.68;;;;;;;16.25;60.94;101487.63;6026859;28;20058;-68
2022/06/02 08:07:24;;;;;;;7.18;4.65;;;;;;;15.86;61.35;101488.16;6022188;28;20049;-68
2022/06/02 08:10:45;;;;;;;7.90;4.78;;;;;;;16.30;63.25;101494.16;6024936;28;20042;-68
2022/06/02 08:13:47;;;;;;;7.63;4.63;;;;;;;15.51;61.00;101500.84;6041789;28;20034;-67
2022/06/02 08:17:01;;;;;;;9.27;4.60;;;;;;;16.17;59.71;101496.44;6041849;28;20799;-68
2022/06/02 08:20:24;;;;;;;6.32;4.13;;;;;;;16.15;59.16;101494.94;6026423;28;20108;-68
2022/06/02 08:23:23;;;;;;;6.53;4.80;;;;;;;16.48;59.24;101499.38;6040242;28;20042;-68
2022/06/02 08:26:23;;;;;;;7.32;4.20;;;;;;;15.97;59.81;101492.38;6026133;28;20058;-68
2022/06/02 08:29:28;;;;;;;7.75;3.28;;;;;;;15.71;57.34;101507.66;6025327;28;20042;-67
2022/06/02 08:32:53;;;;;;;5.47;3.33;;;;;;;15.90;59.00;101496.69;6026002;28;20034;-66
2022/06/02 08:35:59;;;;;;;6.55;3.80;;;;;;;16.09;59.60;101507.13;6026116;28;20157;-65
2022/06/02 08:39:13;;;;;;;;;;;;;;;16.16;59.23;101518.88;6025125;28;20042;-66
2022/06/02 08:42:33;;;;;;;5.47;3.50;;;;;;;16.02;60.39;101511.44;6025426;28;19917;-67
2022/06/02 08:45:56;;;;;;;8.65;3.28;;;;;;;16.53;59.50;101516.63;6026741;28;20030;-67
2022/06/02 08:49:12;;;;;;;5.18;3.03;;;;;;;16.36;56.54;101514.09;6016025;28;20049;-67
2022/06/02 08:52:38;;;;;;;6.30;2.80;;;;;;;16.23;58.20;101517.19;6025105;28;20042;-66
2022/06/02 08:56:07;;;;;;;6.00;2.25;;;;;;;16.35;57.87;101518.59;6023115;28;20034;-68
2022/06/02 08:59:24;;;;;;;4.60;2.17;;;;;;;16.34;55.21;101522.25;6019198;28;20093;-67
2022/06/02 09:02:33;;;;;;;5.10;3.05;;;;;;;16.01;60.26;101531.16;6025116;28;20085;-66
2022/06/02 09:06:09;;;;;;;4.75;3.10;;;;;;;15.53;60.65;101531.78;6026213;28;20046;-66
2022/06/02 09:09:40;;;;;;;6.97;2.38;;;;;;;16.22;58.54;101525.41;5997131;28;20469;-66
2022/06/02 09:12:57;;;;;;;5.57;2.50;;;;;;;16.59;55.76;101537.41;6042320;28;20505;-66
2022/06/02 09:16:36;;;;;;;8.10;3.35;;;;;;;16.82;57.46;101534.09;6030040;28;20056;-66
2022/06/02 09:19:38;;;;;;;6.03;3.75;;;;;;;16.37;58.68;101543.34;5994256;28;20046;-65
2022/06/02 09:22:36;;;;;;;6.32;2.50;;;;;;;15.63;58.57;101551.22;6028564;28;20123;-65
2022/06/02 09:25:43;;;;;;;3.97;2.30;;;;;;;15.42;59.85;101548.88;6028735;28;20035;-66
2022/06/02 09:28:56;;;;;;;5.47;1.92;;;;;;;16.16;56.41;101548.31;6025095;28;20030;-65
2022/06/02 09:32:11;;;;;;;4.03;1.67;;;;;;;16.70;53.49;101530.91;6024878;28;20042;-66
2022/06/02 09:35:20;;;;;;;4.68;2.38;;;;;;;17.36;53.45;101554.03;6025219;28;20034;-66
2022/06/02 09:38:35;;;;;;;6.57;3.20;;;;;;;17.46;53.79;101552.00;6025655;28;20034;-65
2022/06/02 09:41:44;;;;;;;5.68;3.28;;;;;;;17.03;56.10;101559.41;6039677;28;20470;-65
2022/06/02 09:44:51;;;;;;;8.43;1.77;;;;;;;17.19;53.32;101558.56;6039875;28;20122;-67
2022/06/02 09:47:55;;;;;;;5.18;1.90;;;;;;;17.93;49.46;101555.59;6026271;28;20135;-68
2022/06/02 09:51:22;;;;;;;4.43;1.60;;;;;;;18.35;51.18;101556.06;6032446;28;20038;-68
2022/06/02 09:54:32;;;;;;;5.72;2.47;;;;;;;18.71;49.45;101561.78;6036904;28;20513;-69
2022/06/02 09:57:57;;;;;;;5.38;2.20;;;;;;;18.70;50.95;101552.03;6038074;28;20038;-68
2022/06/02 10:00:55;;;;;;;;;;;;;;;18.95;50.08;101564.28;6028712;28;20083;-68
2022/06/02 10:04:27;;;;;;;5.05;2.17;;;;;;;18.16;49.34;101571.78;6025805;28;19960;-68
2022/06/02 10:07:32;;;;;;;4.57;2.10;;;;;;;17.38;51.78;101566.25;6029657;28;20037;-68
2022/06/02 10:10:39;;;;;;;2.90;2.00;;;;;;;17.05;52.47;101575.31;6046410;28;20030;-68
2022/06/02 10:13:56;;;;;;;4.57;1.92;;;;;;;16.82;54.62;101571.59;6035269;28;20065;-66
2022/06/02 10:17:13;;;;;;;2.75;1.60;;;;;;;17.27;53.60;101574.63;6029064;28;20069;-66
2022/06/02 10:20:34;;;;;;;4.47;1.58;;;;;;;17.91;52.28;101567.53;6036811;28;20085;-66
2022/06/02 10:24:04;;;;;;;3.42;1.70;;;;;;;18.08;48.86;101563.75;6052550;28;20406;-66
2022/06/02 10:27:22;;;;;;;3.60;1.67;;;;;;;18.65;48.79;101573.22;6057078;28;20123;-68
2022/06/02 10:30:36;;;;;;;4.82;2.25;;;;;;;17.63;51.55;101575.97;6040851;28;20038;-68
2022/06/02 10:34:08;;;;;;;3.45;1.58;;;;;;;17.69;51.93;101574.47;6028688;28;20466;-67
2022/06/02 10:37:11;;;;;;;6.38;1.80;;;;;;;17.16;54.52;101559.72;6021285;28;20033;-67
2022/06/02 10:40:35;;;;;;;5.38;1.88;;;;;;;17.59;52.31;101563.91;6024824;28;20081;-68
2022/06/02 10:43:31;;;;;;;2.80;1.70;;;;;;;17.24;50.54;101558.88;6030027;28;20046;-67
2022/06/02 10:46:40;;;;;;;3.97;1.70;;;;;;;17.06;51.78;101556.38;6028581;28;20449;-67
2022/06/02 10:50:08;;;;;;;5.55;1.70;;;;;;;16.99;51.95;101570.59;6042408;28;20417;-67
2022/06/02 10:53:57;;;;;;;2.97;1.55;;;;;;;16.67;53.69;101560.69;6044242;28;20037;-67
2022/06/02 10:57:18;;;;;;;3.05;1.70;;;;;;;16.91;52.52;101570.59;6031005;28;20539;-66
2022/06/02 11:00:20;;;;;;;3.83;1.63;;;;;;;17.70;52.51;101560.84;6032971;28;20049;-66
2022/06/02 11:03:55;;;;;;;2.25;1.30;;;;;;;18.88;48.78;101557.13;6026731;28;20030;-67
2022/06/02 11:07:38;;;;;;;2.90;1.65;;;;;;;19.53;44.78;101552.06;6028019;28;20108;-67
2022/06/02 11:10:53;;;;;;;4.13;1.48;;;;;;;19.00;45.32;101556.50;6018520;28;20465;-67
2022/06/02 11:14:11;;;;;;;3.58;1.60;;;;;;;18.68;47.61;101558.59;6042877;28;20026;-66
2022/06/02 11:17:51;;;;;;;5.13;1.55;;;;;;;18.47;47.63;101553.00;6026644;28;20116;-67
2022/06/02 11:21:06;;;;;;;2.70;1.40;;;;;;;18.54;47.11;101549.44;6027426;28;20045;-66
2022/06/02 11:24:36;;;;;;;2.20;1.58;;;;;;;18.10;48.09;101567.13;6045279;28;20134;-66
2022/06/02 11:27:47;;;;;;;4.40;1.35;;;;;;;18.14;48.52;101558.53;6042314;28;20038;-67
2022/06/02 11:31:12;;;;;;;2.85;1.60;;;;;;;18.30;48.56;101557.63;6032290;28;20327;-66
2022/06/02 11:34:14;;;;;;;3.28;1.50;;;;;;;18.87;47.66;101544.69;6023988;28;20111;-66
2022/06/02 11:37:40;;;;;;;2.17;1.40;;;;;;;18.39;46.82;101546.66;6026945;28;20121;-66
2022/06/02 11:40:35;;;;;;;;;;;;;;;18.18;49.61;101561.72;6052577;28;20397;-67
2022/06/02 11:44:15;;;;;;;3.50;1.33;;;;;;;17.79;51.51;101559.84;6028000;28;20690;-67
2022/06/02 11:47:22;;;;;;;2.47;1.60;;;;;;;17.83;50.29;101558.47;5974506;28;20046;-67
2022/06/02 11:50:24;;;;;;;6.60;1.70;;;;;;;17.86;49.48;101551.91;6040262;28;20449;-66
2022/06/02 11:53:41;;;;;;;3.17;1.60;;;;;;;18.37;49.31;101553.22;6027735;28;20398;-66
2022/06/02 11:56:55;;;;;;;3.38;2.20;;;;;;;18.59;49.05;101548.94;6013337;28;20037;-67
2022/06/02 12:00:13;;;;;;;3.28;2.20;;;;;;;18.09;51.58;101555.53;6042300;28;20394;-67
2022/06/02 12:03:46;;;;;;;3.17;1.90;;;;;;;17.91;51.27;101546.06;6026881;28;20034;-67
2022/06/02 12:07:00;;;;;;;4.65;1.73;;;;;;;17.83;50.11;101555.78;6025949;28;20033;-66
2022/06/02 12:10:08;;;;;;;3.35;1.90;;;;;;;17.72;51.47;101553.47;6026175;28;20402;-67
2022/06/02 12:13:44;;;;;;;3.67;1.83;;;;;;;17.97;49.40;101561.44;6041022;28;20045;-66
2022/06/02 12:16:45;;;;;;;2.80;1.90;;;;;;;18.04;50.05;101552.53;6041861;28;20058;-66
2022/06/02 12:20:18;;;;;;;5.20;2.00;;;;;;;18.03;50.03;101550.00;6025482;28;20030;-66
2022/06/02 12:23:33;;;;;;;4.07;1.92;;;;;;;17.61;48.92;101556.50;6018153;28;20022;-66
2022/06/02 12:26:53;;;;;;;2.17;1.50;;;;;;;17.69;48.49;101550.31;6040533;28;20034;-66
2022/06/02 12:29:59;;;;;;;2.00;1.50;;;;;;;18.46;46.64;101554.84;6025689;28;20041;-67
2022/06/02 12:33:11;;;;;;;3.00;1.30;;;;;;;18.96;47.75;101555.22;6041599;28;20058;-67
2022/06/02 12:36:18;;;;;;;3.60;1.70;;;;;;;18.42;47.40;101562.44;6024685;28;20398;-67
2022/06/02 12:39:17;;;;;;;;;;;;;;;18.82;48.57;101555.16;6026519;28;20034;-67
2022/06/02 12:42:50;;;;;;;5.45;1.33;;;;;;;18.87;46.32;101567.03;6025305;28;20020;-66
2022/06/02 12:45:57;;;;;;;3.35;1.30;;;;;;;18.35;47.69;101557.91;6025806;28;20054;-66
2022/06/02 12:49:20;;;;;;;3.15;1.50;;;;;;;18.55;48.59;101545.75;6025596;28;20065;-67
2022/06/02 12:52:30;;;;;;;2.22;1.63;;;;;;;18.39;48.77;101551.19;6017369;28;20379;-66
2022/06/02 12:55:53;;;;;;;3.80;1.60;;;;;;;17.98;50.51;101563.13;6024294;28;20157;-67
2022/06/02 12:59:12;;;;;;;1.90;1.23;;;;;;;17.85;48.79;101559.13;6025697;28;20038;-66
2022/06/02 13:02:13;;;;;;;3.72;1.50;;;;;;;17.94;49.54;101561.81;6040042;28;20089;-66
2022/06/02 13:05:33;;;;;;;4.88;1.50;;;;;;;18.10;50.37;101551.81;6024397;28;20034;-67
2022/06/02 13:08:52;;;;;;;3.25;1.60;;;;;;;18.12;50.06;101559.72;6041872;28;20026;-67
2022/06/02 13:12:25;;;;;;;4.32;1.80;;;;;;;17.81;49.25;101552.44;6039901;28;20057;-67
2022/06/02 13:15:20;;;;;;;3.30;1.60;;;;;;;17.93;50.74;101557.44;6025351;28;20065;-66
2022/06/02 13:18:28;;;;;;;3.47;1.45;;;;;;;18.67;49.37;101554.25;6025210;28;20397;-67
2022/06/02 13:21:43;;;;;;;2.55;1.27;;;;;;;18.54;48.24;101554.81;6024777;28;20466;-67
2022/06/02 13:24:51;;;;;;;2.30;1.30;;;;;;;18.54;48.03;101554.81;6037607;28;20057;-66
2022/06/02 13:28:17;;;;;;;3.08;1.50;;;;;;;18.74;47.41;101544.47;6044371;28;20027;-66
2022/06/02 13:31:43;;;;;;;1.77;1.23;;;;;;;18.87;48.83;101561.66;6028189;28;20129;-66
2022/06/02 13:34:49;;;;;;;4.00;1.35;;;;;;;18.85;47.67;101552.09;6028748;28;20048;-66
2022/06/02 13:38:06;;;;;;;2.15;1.30;;;;;;;19.24;47.11;101551.97;6029851;28;20026;-67
2022/06/02 13:41:21;;;;;;;2.42;1.30;;;;;;;18.72;48.08;101544.66;6036342;28;20429;-66
2022/06/02 13:44:40;;;;;;;3.15;1.65;;;;;;;18.76;49.12;101537.88;6044815;28;20037;-66
2022/06/02 13:48:16;;;;;;;2.17;1.30;;;;;;;19.09;48.97;101537.63;6029416;28;20061;-66
2022/06/02 13:51:41;;;;;;;5.35;1.80;;;;;;;20.37;45.67;101535.41;6028746;28;20672;-67
2022/06/02 13:58:27;;;;;;;2.13;1.60;;;;;;;19.49;45.49;101545.34;6042265;28;20042;-66
2022/06/02 14:02:04;;;;;;;3.90;1.60;;;;;;;19.38;45.63;101543.94;6043888;28;20126;-67
2022/06/02 14:05:16;;;;;;;2.35;1.60;;;;;;;20.32;45.01;101542.38;6030736;28;20042;-67
2022/06/02 14:08:24;;;;;;;2.83;1.20;;;;;;;20.46;44.53;101530.75;6044531;28;20113;-67
2022/06/02 14:11:52;;;;;;;4.55;1.67;;;;;;;19.98;43.09;101538.41;6043880;28;20042;-67
2022/06/02 14:15:15;;;;;;;3.60;1.60;;;;;;;19.45;44.82;101534.13;6031116;28;20034;-66
2022/06/02 14:18:33;;;;;;;2.70;1.35;;;;;;;19.35;46.25;101538.09;6044122;28;20026;-67
2022/06/02 14:21:40;;;;;;;5.90;1.88;;;;;;;19.21;46.48;101537.03;6027712;28;20406;-67
2022/06/02 14:24:43;;;;;;;4.00;1.30;;;;;;;20.17;41.67;101529.75;6029856;28;20409;-67
2022/06/02 14:28:13;;;;;;;2.63;1.55;;;;;;;22.09;38.92;101533.13;6028903;28;20467;-67
2022/06/02 14:31:14;;;;;;;2.83;1.23;;;;;;;23.60;38.49;101535.06;6036686;28;20572;-68
2022/06/02 14:34:43;;;;;;;2.72;1.67;;;;;;;24.31;34.67;101531.50;6028955;28;20070;-67
2022/06/02 14:38:00;;;;;;;2.00;1.30;;;;;;;23.80;36.16;101529.59;6025064;28;20567;-66
2022/06/02 14:41:05;;;;;;;5.60;1.77;;;;;;;23.57;37.52;101521.94;6042998;28;20042;-67
2022/06/02 14:44:16;;;;;;;2.95;1.60;;;;;;;24.12;36.36;101527.84;6026880;28;20375;-67
2022/06/02 14:47:21;;;;;;;1.63;1.13;;;;;;;24.17;34.81;101519.88;6029562;28;20030;-68
2022/06/02 14:50:28;;;;;;;3.17;1.50;;;;;;;24.48;34.45;101530.81;6027762;28;20439;-67
2022/06/02 14:53:49;;;;;;;1.98;1.10;;;;;;;23.57;37.60;101535.47;6050670;28;20389;-67
2022/06/02 14:57:05;;;;;;;3.25;1.55;;;;;;;24.23;35.47;101528.00;6024493;28;20022;-67
2022/06/02 15:00:13;;;;;;;3.47;1.38;;;;;;;23.13;37.97;101532.53;6055844;28;20034;-67
2022/06/02 15:03:30;;;;;;;3.63;1.13;;;;;;;21.90;39.22;101537.41;6026557;28;20755;-67
2022/06/02 15:06:40;;;;;;;2.47;1.13;;;;;;;21.14;40.83;101525.66;6021016;28;20042;-67
2022/06/02 15:10:09;;;;;;;2.25;1.30;;;;;;;23.79;36.14;101527.09;6022006;28;20026;-68
2022/06/02 15:13:13;;;;;;;3.63;1.25;;;;;;;24.80;34.15;101516.22;6027426;28;20068;-67